Terminal Aerodrome Forecast
Issued by NWS

Home | Current Version | Previous Version | Text Only | Print | Product List | Glossary On
Versions: 1 2 3 4 5 6 7 8 9 10 11 12 13 14 15
000
FTUS44 KBMX 211139
TAFEET
TAF
KEET 211139Z 2112/2212 00000KT 4SM BR SKC
     FM211300 VRB03KT P6SM SCT040
     FM211700 02006KT P6SM VCTS SCT040CB
      TEMPO 2120/2124 TSRA BKN050CB
     FM220600 19002KT P6SM SCT250=

USA.gov is the U.S. government's official web portal to all federal, state and local government web resources and services.